Time;durP1;ratioP1;P1;durP2;ratioP2;P2;SDS_P1;SDS_P2;PMS_P1;PMS_P2;Temp;Humidity;BMP_temperature;BMP_pressure;BME280_temperature;BME280_humidity;BME280_pressure;Samples;Min_cycle;Max_cycle;Signal;HPM_P1;HPM_P2
2022/09/12 00:01:38;;;;;;;6.07;5.47;;;;;;;14.90;65.97;101030.91;5022634;28;20029;-22
2022/09/12 00:04:04;;;;;;;5.97;5.30;;;;;;;14.91;66.09;101029.16;5028477;28;20021;-22
2022/09/12 00:06:32;;;;;;;6.50;5.07;;;;;;;14.89;66.23;101034.50;5071647;28;20483;-22
2022/09/12 00:08:59;;;;;;;6.07;4.88;;;;;;;14.89;66.12;101023.88;5014523;28;20361;-22
2022/09/12 00:11:25;;;;;;;7.35;4.63;;;;;;;14.89;65.99;101018.56;5029097;28;20063;-22
2022/09/12 00:13:51;;;;;;;5.10;4.60;;;;;;;14.87;66.07;101028.31;5021689;28;20033;-22
2022/09/12 00:16:19;;;;;;;6.25;5.65;;;;;;;14.86;66.27;101024.81;5028122;28;20041;-22
2022/09/12 00:18:45;;;;;;;7.70;5.57;;;;;;;14.86;66.23;101022.16;5024660;28;20021;-22
2022/09/12 00:21:11;;;;;;;7.57;5.20;;;;;;;14.84;66.42;101021.31;5025327;28;20087;-22
2022/09/12 00:23:36;;;;;;;8.43;5.45;;;;;;;14.83;66.28;101021.34;5024971;28;20489;-22
2022/09/12 00:26:04;;;;;;;7.35;5.25;;;;;;;14.83;66.42;101019.56;5025320;28;20428;-22
2022/09/12 00:28:30;;;;;;;5.18;4.13;;;;;;;14.83;66.26;101024.00;5026282;28;20029;-22
2022/09/12 00:30:55;;;;;;;5.55;4.97;;;;;;;14.84;66.38;101015.13;5028288;28;20066;-23
2022/09/12 00:33:20;;;;;;;5.78;4.95;;;;;;;14.81;66.41;101023.16;5025222;28;20053;-22
2022/09/12 00:35:49;;;;;;;5.80;4.47;;;;;;;14.79;66.38;101024.97;5026387;28;20062;-22
2022/09/12 00:38:15;;;;;;;5.43;4.15;;;;;;;14.80;66.36;101024.09;5058844;28;20091;-22
2022/09/12 00:40:41;;;;;;;5.70;5.13;;;;;;;14.77;66.49;101018.78;5026914;28;20056;-22
2022/09/12 00:43:14;;;;;;;5.25;4.75;;;;;;;14.77;66.33;101016.16;5028097;28;20529;-23
2022/09/12 00:45:41;;;;;;;7.40;5.30;;;;;;;14.73;66.72;101018.84;5025384;28;20021;-22
2022/09/12 00:48:17;;;;;;;6.78;4.97;;;;;;;14.73;66.53;101023.28;5024382;28;20026;-22
2022/09/12 00:50:42;;;;;;;5.68;4.93;;;;;;;14.74;66.44;101030.38;5042913;28;20044;-23
2022/09/12 00:53:07;;;;;;;5.80;5.10;;;;;;;14.72;66.46;101018.88;5011787;28;20575;-22
2022/09/12 00:55:42;;;;;;;6.13;5.43;;;;;;;14.69;66.68;101019.81;5032823;28;20052;-22
2022/09/12 00:58:14;;;;;;;5.18;4.65;;;;;;;14.68;66.64;101026.06;5034639;28;20064;-22
2022/09/12 01:00:40;;;;;;;5.75;5.03;;;;;;;14.68;66.56;101015.44;5063554;28;20052;-22
2022/09/12 01:03:13;;;;;;;6.70;5.35;;;;;;;14.69;66.62;101017.19;5031575;28;20469;-22
2022/09/12 01:05:43;;;;;;;5.45;4.95;;;;;;;14.67;67.01;101018.97;5030986;28;20041;-22
2022/09/12 01:08:09;;;;;;;5.25;4.75;;;;;;;14.63;66.70;101018.19;5062788;28;20033;-22
2022/09/12 01:10:37;;;;;;;5.72;4.97;;;;;;;14.66;66.58;101019.00;5062049;28;20037;-22
2022/09/12 01:13:04;;;;;;;5.85;4.95;;;;;;;14.63;66.70;101017.28;5032764;28;20448;-22
2022/09/12 01:15:29;;;;;;;6.78;5.25;;;;;;;14.63;66.58;101009.31;5013394;28;20021;-22
2022/09/12 01:17:54;;;;;;;5.65;4.95;;;;;;;14.63;66.54;101014.63;5028626;28;20021;-22
2022/09/12 01:20:34;;;;;;;5.60;4.97;;;;;;;14.60;67.15;101017.34;5032118;28;20389;-22
2022/09/12 01:23:30;;;;;;;6.70;4.80;;;;;;;14.59;67.01;101016.50;5031351;28;20292;-22
2022/09/12 01:26:06;;;;;;;6.63;5.53;;;;;;;14.58;66.91;101014.72;4976486;28;20034;-22
2022/09/12 01:29:10;;;;;;;7.82;5.57;;;;;;;14.55;66.94;101013.91;5016480;28;20800;-22
2022/09/12 01:31:51;;;;;;;5.50;4.90;;;;;;;14.54;67.03;101020.16;5027255;28;20124;-22
2022/09/12 01:34:26;;;;;;;7.18;5.55;;;;;;;14.53;67.17;101021.03;5024208;28;20037;-22
2022/09/12 01:37:07;;;;;;;7.68;5.50;;;;;;;14.53;66.91;101010.41;5033671;28;20026;-22
2022/09/12 01:39:39;;;;;;;6.97;5.27;;;;;;;14.52;67.00;101017.53;5037274;28;20025;-22
2022/09/12 01:42:38;;;;;;;6.13;5.50;;;;;;;14.49;67.10;101010.50;5030759;28;20284;-22
2022/09/12 01:45:09;;;;;;;6.97;5.43;;;;;;;14.47;67.32;101003.44;5028301;28;20061;-22
2022/09/12 01:47:49;;;;;;;5.90;4.70;;;;;;;14.46;67.10;101002.59;5028028;28;20168;-22
2022/09/12 01:50:26;;;;;;;6.20;4.82;;;;;;;14.46;67.03;101005.25;5020741;28;20030;-22
2022/09/12 01:53:05;;;;;;;7.40;5.00;;;;;;;14.44;67.02;100999.09;5024355;28;20025;-22
2022/09/12 01:55:42;;;;;;;5.70;5.10;;;;;;;14.44;66.90;100996.44;5031567;28;20026;-23
2022/09/12 01:58:21;;;;;;;5.78;4.97;;;;;;;14.43;66.92;100999.09;5063238;28;20040;-22
2022/09/12 02:00:55;;;;;;;6.72;5.55;;;;;;;14.39;67.17;100993.00;5022249;28;20026;-22
2022/09/12 02:03:28;;;;;;;7.82;5.50;;;;;;;14.37;67.00;100997.44;5048018;28;20025;-22
2022/09/12 02:06:02;;;;;;;6.43;4.85;;;;;;;14.39;67.12;100993.00;5031592;28;20029;-22
2022/09/12 02:08:36;;;;;;;5.43;4.93;;;;;;;14.37;67.06;100995.69;5030028;28;20120;-22
2022/09/12 02:11:06;;;;;;;6.82;5.03;;;;;;;14.35;67.37;100991.31;5033229;28;20070;-22
2022/09/12 02:13:35;;;;;;;6.03;5.38;;;;;;;14.35;66.87;100986.00;5071207;28;20401;-22
2022/09/12 02:16:05;;;;;;;7.30;5.28;;;;;;;14.33;67.20;100988.69;5034231;28;20031;-22
2022/09/12 02:18:31;;;;;;;6.25;5.22;;;;;;;14.31;67.41;100985.19;5028671;28;20060;-22
2022/09/12 02:20:57;;;;;;;6.63;4.85;;;;;;;14.31;67.21;100979.03;5033172;28;20401;-22
2022/09/12 02:23:26;;;;;;;7.47;5.35;;;;;;;14.28;67.14;100974.66;5030413;28;20067;-23
2022/09/12 02:25:54;;;;;;;5.72;4.57;;;;;;;14.28;67.32;100973.78;5035010;28;20029;-23
2022/09/12 02:28:25;;;;;;;7.35;5.82;;;;;;;14.26;67.21;100981.75;5035400;28;20092;-23
2022/09/12 02:31:27;;;;;;;5.50;4.82;;;;;;;14.22;67.38;100978.31;5074134;28;20112;-23
2022/09/12 02:34:09;;;;;;;6.75;5.40;;;;;;;14.21;67.47;100979.19;5030193;28;20037;-24
2022/09/12 02:36:49;;;;;;;5.13;4.43;;;;;;;14.20;67.58;100972.13;5035385;28;20358;-25
2022/09/12 02:39:18;;;;;;;5.22;4.72;;;;;;;14.20;67.17;100977.44;5026459;28;20022;-24
2022/09/12 02:41:45;;;;;;;5.65;4.78;;;;;;;14.17;67.20;100972.19;5031922;28;20029;-24
2022/09/12 02:44:11;;;;;;;5.53;4.95;;;;;;;14.15;67.37;100967.81;5026529;28;20597;-25
2022/09/12 02:47:09;;;;;;;6.50;4.40;;;;;;;14.11;67.58;100967.88;5027340;28;20111;-25
2022/09/12 02:49:35;;;;;;;5.68;4.80;;;;;;;14.07;67.52;100965.34;5028341;28;20381;-24
2022/09/12 02:52:01;;;;;;;6.40;4.90;;;;;;;14.04;67.78;100968.03;5047185;28;20044;-24
2022/09/12 02:54:27;;;;;;;7.97;5.40;;;;;;;14.00;67.80;100969.00;5061957;28;20492;-25
2022/09/12 02:56:52;;;;;;;7.32;5.50;;;;;;;13.98;67.79;100977.84;5033730;28;20043;-23
2022/09/12 02:59:20;;;;;;;7.47;5.65;;;;;;;13.96;67.63;100984.97;5033518;28;20634;-24
2022/09/12 03:01:57;;;;;;;6.88;5.15;;;;;;;13.91;67.68;100984.16;5027859;28;20029;-24
2022/09/12 03:04:35;;;;;;;7.57;5.53;;;;;;;13.89;68.23;100985.09;5032632;28;20044;-24
2022/09/12 03:07:23;;;;;;;5.60;4.95;;;;;;;13.89;67.82;100983.31;5033260;28;20025;-24
2022/09/12 03:10:02;;;;;;;7.32;5.22;;;;;;;13.88;67.65;100981.59;5034576;28;20029;-24
2022/09/12 03:12:59;;;;;;;5.82;5.22;;;;;;;13.83;67.89;100981.66;5030169;28;20013;-24
2022/09/12 03:15:28;;;;;;;6.80;5.13;;;;;;;13.78;68.03;100980.00;5030724;28;20026;-24
2022/09/12 03:17:56;;;;;;;7.88;5.15;;;;;;;13.75;67.97;100983.56;5065267;28;20028;-24
2022/09/12 03:20:32;;;;;;;7.65;5.40;;;;;;;13.70;67.96;100981.00;5031741;28;20033;-24
2022/09/12 03:23:25;;;;;;;6.15;5.25;;;;;;;13.67;67.95;100978.41;5025407;28;20155;-24
2022/09/12 03:26:19;;;;;;;5.88;5.22;;;;;;;13.62;68.02;100974.97;5022162;28;20037;-24
2022/09/12 03:28:46;;;;;;;5.10;4.60;;;;;;;13.61;68.11;100975.88;5038566;28;20072;-25
2022/09/12 03:31:14;;;;;;;6.10;5.18;;;;;;;13.58;67.92;100967.97;5057920;28;20444;-24
2022/09/12 03:33:39;;;;;;;6.22;4.82;;;;;;;13.55;67.86;100973.31;5026450;28;20078;-24
2022/09/12 03:36:05;;;;;;;6.90;5.28;;;;;;;13.52;67.98;100968.06;5062781;28;20450;-24
2022/09/12 03:38:30;;;;;;;6.25;5.60;;;;;;;13.49;68.05;100963.69;5026995;28;20105;-24
2022/09/12 03:40:55;;;;;;;7.65;5.30;;;;;;;13.49;68.03;100968.09;5026577;28;20032;-24
2022/09/12 03:43:21;;;;;;;4.72;4.18;;;;;;;13.48;67.74;100967.22;5071654;28;20064;-24
2022/09/12 03:45:49;;;;;;;6.88;4.85;;;;;;;13.41;68.14;100963.75;5030439;28;20548;-24
2022/09/12 03:48:15;;;;;;;6.70;4.72;;;;;;;13.40;67.95;100964.69;5029571;28;20402;-24
2022/09/12 03:50:40;;;;;;;6.88;5.30;;;;;;;13.38;68.07;100976.19;5026570;28;20047;-24
2022/09/12 03:53:05;;;;;;;5.60;4.85;;;;;;;13.35;68.01;100963.88;5030554;28;20040;-24
2022/09/12 03:55:31;;;;;;;5.75;4.88;;;;;;;13.29;68.03;100966.63;5032417;28;20037;-24
2022/09/12 03:57:56;;;;;;;7.00;5.20;;;;;;;13.27;68.05;100973.72;5029549;28;20025;-24
2022/09/12 04:00:22;;;;;;;6.50;5.35;;;;;;;13.20;68.16;100962.34;5067600;28;20496;-24
2022/09/12 04:02:47;;;;;;;6.30;5.32;;;;;;;13.21;68.03;100972.91;5029323;28;20545;-24
2022/09/12 04:05:12;;;;;;;6.22;5.63;;;;;;;13.18;68.21;100969.44;5026652;28;20505;-24
2022/09/12 04:07:38;;;;;;;6.60;4.60;;;;;;;13.17;68.13;100975.66;5030118;28;20389;-24
2022/09/12 04:10:04;;;;;;;6.78;5.13;;;;;;;13.12;68.07;100975.72;5029426;28;20021;-24
2022/09/12 04:12:29;;;;;;;6.57;5.05;;;;;;;13.08;67.67;100974.88;5029726;28;20018;-24
2022/09/12 04:14:54;;;;;;;7.57;5.18;;;;;;;13.06;68.38;100975.78;5030511;28;20029;-24
2022/09/12 04:17:19;;;;;;;7.28;5.18;;;;;;;13.04;68.35;100978.47;5030883;28;20082;-24
2022/09/12 04:19:45;;;;;;;6.38;5.40;;;;;;;13.02;68.16;100984.69;5027081;28;20029;-24
2022/09/12 04:22:10;;;;;;;7.15;5.50;;;;;;;13.00;68.44;100981.19;5028856;28;20444;-24
2022/09/12 04:24:35;;;;;;;6.10;5.30;;;;;;;12.96;67.74;100986.53;5036458;28;20021;-24
2022/09/12 04:27:01;;;;;;;7.35;5.55;;;;;;;12.92;68.22;100982.19;5023901;28;20034;-21
2022/09/12 04:29:26;;;;;;;8.00;5.95;;;;;;;12.88;68.48;100980.47;5030088;28;20036;-24
2022/09/12 04:31:52;;;;;;;8.07;6.00;;;;;;;12.87;68.18;100973.41;5029292;28;20025;-24
2022/09/12 04:34:17;;;;;;;7.85;5.40;;;;;;;12.85;67.97;100969.91;5027692;28;20102;-24
2022/09/12 04:36:42;;;;;;;6.72;5.43;;;;;;;12.80;68.31;100969.97;5062936;28;20511;-24
2022/09/12 04:39:09;;;;;;;6.80;5.70;;;;;;;12.80;68.21;100969.09;5029050;28;20090;-24
2022/09/12 04:41:36;;;;;;;7.22;5.18;;;;;;;12.78;68.23;100970.91;5049032;28;20063;-24
2022/09/12 04:44:07;;;;;;;6.43;5.55;;;;;;;12.74;68.39;100974.47;5032274;28;20045;-24
2022/09/12 04:46:34;;;;;;;;;;;;;;;12.73;68.35;100978.03;5039977;28;20025;-24
2022/09/12 04:48:59;;;;;;;6.50;4.63;;;;;;;12.70;68.34;100979.81;5022646;28;19970;-24
2022/09/12 04:51:27;;;;;;;5.47;4.53;;;;;;;12.67;68.20;100979.84;5037446;28;20408;-24
2022/09/12 04:53:56;;;;;;;6.18;5.15;;;;;;;12.66;68.26;100978.09;5011043;28;20493;-24
2022/09/12 04:56:22;;;;;;;5.57;4.78;;;;;;;12.67;68.36;100985.13;5029812;28;20119;-24
2022/09/12 04:58:47;;;;;;;5.63;4.75;;;;;;;12.63;68.62;100977.25;5025259;28;20064;-24
2022/09/12 05:01:18;;;;;;;5.53;4.90;;;;;;;12.59;68.88;100981.72;5020371;28;20025;-24
2022/09/12 05:03:45;;;;;;;4.50;3.85;;;;;;;12.58;68.59;100985.25;5023873;28;20086;-24
2022/09/12 05:06:16;;;;;;;5.18;4.68;;;;;;;12.61;68.42;100987.00;5030644;28;20057;-24
2022/09/12 05:08:41;;;;;;;5.90;4.68;;;;;;;12.57;68.70;100994.06;5029244;28;20029;-24
2022/09/12 05:11:09;;;;;;;5.80;4.32;;;;;;;12.58;68.19;100995.84;5030936;28;20407;-24
2022/09/12 05:13:35;;;;;;;6.85;4.80;;;;;;;12.54;68.60;100995.00;5031519;28;20044;-23
2022/09/12 05:16:02;;;;;;;5.72;4.32;;;;;;;12.56;68.53;100992.34;5028516;28;20080;-23
2022/09/12 05:18:30;;;;;;;4.53;3.85;;;;;;;12.53;68.80;100992.38;5021923;28;20022;-23
2022/09/12 05:20:58;;;;;;;4.72;3.80;;;;;;;12.50;68.49;100992.44;5028212;28;20396;-23
2022/09/12 05:23:23;;;;;;;4.80;4.30;;;;;;;12.51;68.39;100996.81;5031000;28;20267;-23
2022/09/12 05:25:50;;;;;;;4.93;4.18;;;;;;;12.50;68.83;101003.88;5032972;28;20103;-23
2022/09/12 05:28:15;;;;;;;4.22;3.63;;;;;;;12.48;68.87;101004.78;5029640;28;20095;-23
2022/09/12 05:30:41;;;;;;;4.70;4.30;;;;;;;12.48;68.71;101002.13;5030354;28;20029;-23
2022/09/12 05:33:06;;;;;;;4.05;3.75;;;;;;;12.44;68.74;101007.47;5033821;28;20044;-23
2022/09/12 05:35:32;;;;;;;4.53;3.72;;;;;;;12.42;68.83;101009.25;5030583;28;20029;-23
2022/09/12 05:37:57;;;;;;;3.70;3.30;;;;;;;12.42;69.00;101009.25;5027522;28;20021;-23
2022/09/12 05:40:23;;;;;;;4.47;3.70;;;;;;;12.39;68.64;101008.41;5022743;28;20553;-23
2022/09/12 05:42:48;;;;;;;4.32;3.80;;;;;;;12.40;69.10;101013.69;5008968;28;20045;-23
2022/09/12 05:45:13;;;;;;;4.38;3.97;;;;;;;12.42;68.80;101026.88;5026076;28;20284;-23
2022/09/12 05:47:39;;;;;;;4.25;3.85;;;;;;;12.41;68.71;101026.00;5025163;28;20485;-23
2022/09/12 05:50:09;;;;;;;4.65;4.00;;;;;;;12.42;68.70;101025.13;5032979;28;20029;-23
2022/09/12 05:52:35;;;;;;;4.47;3.78;;;;;;;12.43;69.22;101026.88;5032227;28;20029;-23
2022/09/12 05:55:00;;;;;;;5.45;4.22;;;;;;;12.42;69.32;101027.78;5033025;28;20088;-24
2022/09/12 05:57:25;;;;;;;4.53;4.07;;;;;;;12.44;69.17;101023.31;5033195;28;20032;-23
2022/09/12 05:59:51;;;;;;;6.43;3.90;;;;;;;12.46;69.03;101018.03;5030029;28;20500;-23
2022/09/12 06:02:17;;;;;;;4.43;3.88;;;;;;;12.48;68.98;101026.84;5030956;28;20437;-23
2022/09/12 06:04:42;;;;;;;4.38;3.80;;;;;;;12.47;69.13;101019.78;5031784;28;20043;-23
2022/09/12 06:07:07;;;;;;;5.63;4.30;;;;;;;12.50;69.00;101026.81;5031650;28;20029;-23
2022/09/12 06:09:33;;;;;;;5.57;4.20;;;;;;;12.51;68.97;101023.28;5034599;28;20025;-23
2022/09/12 06:11:59;;;;;;;6.28;4.43;;;;;;;12.52;69.39;101027.66;5032961;28;20542;-23
2022/09/12 06:14:24;;;;;;;7.53;6.20;;;;;;;12.50;76.64;101024.19;5027389;28;20033;-23
2022/09/12 06:16:50;;;;;;;9.95;7.47;;;;;;;12.50;78.13;101029.47;5029408;28;20152;-23
2022/09/12 06:19:17;;;;;;;10.82;7.28;;;;;;;12.56;80.73;101029.38;5026856;28;20107;-24
2022/09/12 06:21:43;;;;;;;10.90;8.40;;;;;;;12.57;82.45;101036.41;5031312;28;20041;-25
2022/09/12 06:24:09;;;;;;;12.82;10.43;;;;;;;12.51;82.96;101037.34;5030235;28;20033;-25
2022/09/12 06:26:35;;;;;;;13.20;9.10;;;;;;;12.42;84.17;101030.44;5030494;28;20152;-23
2022/09/12 06:29:01;;;;;;;13.77;9.35;;;;;;;12.50;82.98;101030.31;5092412;22;20099;-19
2022/09/12 06:31:32;;;;;;;13.57;11.27;;;;;;;12.64;82.11;101027.50;5046032;28;20032;-19
2022/09/12 06:37:19;;;;;;;14.02;9.68;;;;;;;12.85;81.50;101036.09;5041853;28;20116;-20
2022/09/12 06:39:47;;;;;;;11.93;9.73;;;;;;;12.92;83.99;101019.25;5042544;28;20111;-20
2022/09/12 06:42:13;;;;;;;13.95;10.93;;;;;;;13.07;80.59;101027.84;5041283;28;20024;-20
2022/09/12 06:44:39;;;;;;;14.27;9.95;;;;;;;13.19;83.26;101034.75;5044224;28;20060;-20
2022/09/12 06:47:04;;;;;;;13.63;10.45;;;;;;;13.25;81.71;101034.69;5044484;28;20170;-20
2022/09/12 06:49:30;;;;;;;13.27;10.27;;;;;;;13.31;82.03;101028.41;5053170;28;20388;-20
2022/09/12 06:51:55;;;;;;;13.32;9.77;;;;;;;13.42;79.62;101026.47;5045724;28;20021;-20
2022/09/12 06:54:22;;;;;;;11.95;10.43;;;;;;;13.58;78.87;101023.63;5032795;28;20392;-20
2022/09/12 06:56:47;;;;;;;14.68;9.43;;;;;;;13.68;77.70;101019.03;5040670;28;20025;-20
2022/09/12 06:59:12;;;;;;;13.50;9.27;;;;;;;13.78;77.94;101022.41;5056959;28;20021;-20
2022/09/12 07:01:40;;;;;;;11.65;8.82;;;;;;;13.82;78.52;101024.09;5050325;28;20020;-20
2022/09/12 07:04:06;;;;;;;13.45;9.68;;;;;;;13.92;78.14;101015.09;5049395;28;20466;-20
2022/09/12 07:06:39;;;;;;;10.88;9.15;;;;;;;14.02;78.76;101017.56;5043977;28;20029;-21
2022/09/12 07:09:06;;;;;;;18.42;10.55;;;;;;;14.05;78.80;101010.44;5059013;28;20501;-20
2022/09/12 07:11:35;;;;;;;14.55;9.50;;;;;;;14.14;77.77;101017.34;5036337;28;20023;-20
2022/09/12 07:14:01;;;;;;;13.15;9.75;;;;;;;14.25;77.35;101017.16;5050675;28;20114;-21
2022/09/12 07:16:27;;;;;;;13.68;10.23;;;;;;;14.33;78.02;101011.69;5048980;28;20202;-19
2022/09/12 07:18:58;;;;;;;13.05;10.05;;;;;;;14.39;77.39;101016.88;5051963;28;20119;-20
2022/09/12 07:21:23;;;;;;;17.47;10.13;;;;;;;14.39;76.48;101016.00;5054460;28;20024;-21
2022/09/12 07:23:50;;;;;;;13.45;9.52;;;;;;;14.42;75.93;101014.19;5051153;28;20080;-21
2022/09/12 07:26:16;;;;;;;10.55;8.48;;;;;;;14.48;75.64;101019.34;5047412;28;20501;-21
2022/09/12 07:28:41;;;;;;;12.07;8.38;;;;;;;14.52;74.93;101009.56;5040618;28;20024;-20
2022/09/12 07:31:14;;;;;;;12.48;9.52;;;;;;;14.57;74.56;101006.81;5043291;28;20045;-20
2022/09/12 07:33:50;;;;;;;10.90;7.88;;;;;;;14.63;74.41;101009.31;5038158;28;20025;-20
2022/09/12 07:36:17;;;;;;;11.15;8.13;;;;;;;14.70;73.94;101007.41;5057186;28;20053;-20
2022/09/12 07:38:43;;;;;;;10.98;8.07;;;;;;;14.74;73.89;101003.81;5060587;28;20029;-20
2022/09/12 07:41:11;;;;;;;9.45;7.15;;;;;;;14.83;73.51;101006.28;5054965;28;20036;-21
2022/09/12 07:43:36;;;;;;;9.45;7.28;;;;;;;14.91;73.05;101006.13;5039508;28;20035;-21
2022/09/12 07:46:02;;;;;;;10.27;7.32;;;;;;;14.98;73.29;101006.88;5053033;28;20025;-21
2022/09/12 07:48:27;;;;;;;10.48;7.88;;;;;;;15.08;72.92;101008.41;5051321;28;20029;-20
2022/09/12 07:51:00;;;;;;;8.43;7.00;;;;;;;15.19;72.52;101013.47;5047295;28;20024;-20
2022/09/12 07:53:36;;;;;;;10.60;7.45;;;;;;;15.29;72.58;101015.91;5047771;28;20090;-20
2022/09/12 07:56:03;;;;;;;9.43;7.05;;;;;;;15.41;72.50;101018.28;5044799;28;20151;-20
2022/09/12 07:58:29;;;;;;;10.27;7.13;;;;;;;15.49;72.16;101013.66;5037729;28;20077;-21
2022/09/12 08:01:01;;;;;;;8.15;6.80;;;;;;;15.62;72.15;101013.34;5050740;28;20031;-21
2022/09/12 08:19:08;;;;;;;11.65;8.85;;;;;;;16.75;71.60;101024.56;5114011;27;20417;-11
2022/09/12 08:21:34;;;;;;;11.13;8.23;;;;;;;16.70;71.24;101024.69;5092472;28;20040;-15
2022/09/12 08:24:02;;;;;;;10.93;8.60;;;;;;;16.75;71.17;101021.91;5093539;28;20468;-10
2022/09/12 08:26:29;;;;;;;9.52;7.72;;;;;;;16.83;70.94;101014.56;5101459;22;20067;-21
2022/09/12 08:28:54;;;;;;;9.77;7.13;;;;;;;16.98;70.81;101018.56;5089923;28;20020;-21
2022/09/12 08:31:21;;;;;;;9.30;7.05;;;;;;;17.07;70.84;101011.22;5091287;28;20078;-21
2022/09/12 08:33:47;;;;;;;11.25;6.95;;;;;;;17.20;70.92;101017.06;5093927;28;20020;-23
2022/09/12 08:36:13;;;;;;;10.77;7.63;;;;;;;17.30;70.68;101011.38;5087075;28;20043;-23
2022/09/12 08:38:41;;;;;;;8.55;7.28;;;;;;;17.44;70.26;101015.41;5087355;28;20182;-23
2022/09/12 08:41:29;;;;;;;8.88;6.93;;;;;;;17.61;69.89;101012.16;5069343;28;20481;-23
2022/09/12 08:44:05;;;;;;;9.48;6.35;;;;;;;17.77;70.21;101017.84;5087342;28;20040;-22
2022/09/12 08:46:37;;;;;;;8.43;6.70;;;;;;;17.78;69.63;101008.91;5050221;28;20028;-23
2022/09/12 08:49:04;;;;;;;7.82;7.03;;;;;;;17.98;70.04;101014.50;5082089;28;20016;-23
2022/09/12 08:51:33;;;;;;;7.68;6.45;;;;;;;18.14;69.46;101014.88;5094400;28;20038;-23
2022/09/12 08:54:00;;;;;;;8.65;6.80;;;;;;;18.23;69.15;101011.00;5091780;28;20080;-22
2022/09/12 08:56:26;;;;;;;7.00;5.63;;;;;;;18.37;69.23;101005.16;5069676;28;20034;-24
2022/09/12 08:58:52;;;;;;;6.15;5.55;;;;;;;18.50;68.54;101006.44;5070809;28;20043;-24
2022/09/12 09:01:52;;;;;;;6.55;5.28;;;;;;;18.53;68.13;101009.00;5089086;28;20489;-24
2022/09/12 09:04:42;;;;;;;6.47;5.45;;;;;;;18.68;68.34;101009.34;5087313;28;20036;-23
2022/09/12 09:07:21;;;;;;;6.65;5.13;;;;;;;18.81;67.72;101005.28;5068190;28;20028;-23
2022/09/12 09:10:15;;;;;;;4.85;4.45;;;;;;;18.90;67.36;101003.19;5051591;28;20028;-23
2022/09/12 09:14:46;;;;;;;5.03;4.53;;;;;;;18.97;67.29;101005.56;5078091;28;20012;-24
2022/09/12 09:16:17;;;;;;;5.32;4.82;;;;;;;19.13;67.42;100991.59;5085934;28;20047;-24
2022/09/12 09:18:44;;;;;;;6.07;4.65;;;;;;;19.31;67.31;100989.97;5078891;28;20036;-22
2022/09/12 09:21:09;;;;;;;5.00;4.10;;;;;;;19.47;67.25;101002.72;5064983;28;20042;-23
2022/09/12 09:23:37;;;;;;;4.40;4.00;;;;;;;19.64;67.23;100990.47;5088405;28;20035;-22
2022/09/12 09:26:17;;;;;;;4.53;4.13;;;;;;;19.82;66.46;100986.13;5084282;28;20043;-22
2022/09/12 09:28:50;;;;;;;5.07;4.32;;;;;;;20.06;65.60;100992.25;5061261;28;20020;-22
2022/09/12 09:31:27;;;;;;;4.50;4.10;;;;;;;20.27;65.24;100986.00;5066251;28;20028;-21
2022/09/12 09:33:57;;;;;;;4.80;4.32;;;;;;;20.31;65.07;100988.47;5054702;28;20659;-21
2022/09/12 09:36:49;;;;;;;4.00;3.70;;;;;;;20.34;64.96;100988.31;5054424;28;20112;-21
2022/09/12 09:39:55;;;;;;;4.97;3.85;;;;;;;20.56;64.73;100987.34;5056227;28;20489;-21
2022/09/12 09:42:53;;;;;;;4.07;3.67;;;;;;;20.71;64.24;100983.06;5070616;28;20493;-29
2022/09/12 09:45:22;;;;;;;4.80;3.90;;;;;;;20.89;62.85;100973.34;5053620;28;20021;-21
2022/09/12 09:47:53;;;;;;;3.83;3.53;;;;;;;20.89;62.52;100975.16;5074576;28;20088;-21
2022/09/12 09:50:19;;;;;;;4.40;3.45;;;;;;;20.82;62.71;100969.19;5020284;28;20040;-20
2022/09/12 09:52:46;;;;;;;4.80;3.33;;;;;;;20.83;62.70;100970.03;5056874;28;20024;-21
2022/09/12 09:55:20;;;;;;;3.90;3.60;;;;;;;20.85;62.72;100965.47;5035140;28;20044;-21
2022/09/12 09:57:45;;;;;;;5.70;3.28;;;;;;;20.85;62.75;100966.38;5055465;28;20052;-21
2022/09/12 10:00:27;;;;;;;3.75;3.40;;;;;;;20.87;62.79;100964.47;5070553;28;20055;-21
2022/09/12 10:03:31;;;;;;;3.22;3.03;;;;;;;20.88;62.55;100966.22;5073614;28;20024;-21
2022/09/12 10:06:21;;;;;;;2.90;2.70;;;;;;;21.03;61.26;100963.75;5054814;28;20648;-22
2022/09/12 10:08:50;;;;;;;2.73;2.53;;;;;;;21.07;61.22;100964.47;5073140;28;20040;-21
2022/09/12 10:11:25;;;;;;;3.17;2.30;;;;;;;21.11;60.68;100953.50;5070388;28;20113;-20
2022/09/12 10:13:52;;;;;;;3.00;2.80;;;;;;;21.15;60.57;100952.41;5050398;28;20021;-21
2022/09/12 10:16:34;;;;;;;2.95;2.75;;;;;;;21.15;61.05;100959.59;5072946;28;20021;-21
2022/09/12 10:19:01;;;;;;;3.05;2.78;;;;;;;21.21;60.55;100959.28;5055255;28;20396;-22
2022/09/12 10:21:31;;;;;;;2.83;2.63;;;;;;;21.24;60.99;100958.28;5049663;28;20416;-21
2022/09/12 10:24:23;;;;;;;2.20;2.10;;;;;;;21.23;60.83;100948.47;5072256;28;20562;-21
2022/09/12 10:27:16;;;;;;;2.53;2.33;;;;;;;21.23;61.43;100953.84;5028309;28;20037;-21
2022/09/12 10:30:14;;;;;;;2.50;2.30;;;;;;;21.29;60.66;100948.19;5050453;28;20055;-21
2022/09/12 10:32:41;;;;;;;2.30;2.20;;;;;;;21.36;60.58;100944.25;5033652;28;20032;-20
2022/09/12 10:35:22;;;;;;;2.92;2.72;;;;;;;21.53;60.65;100940.72;5071984;28;20031;-20
2022/09/12 10:37:53;;;;;;;2.70;2.50;;;;;;;21.63;60.06;100946.47;5071891;28;20031;-20
2022/09/12 10:40:31;;;;;;;3.13;2.60;;;;;;;21.71;60.28;100946.06;5071746;28;20043;-20
2022/09/12 10:42:58;;;;;;;2.95;2.72;;;;;;;21.79;60.48;100946.59;5054886;28;20021;-22
2022/09/12 10:45:30;;;;;;;3.60;2.63;;;;;;;21.86;60.32;100941.75;5070135;28;20024;-20
2022/09/12 10:48:01;;;;;;;2.65;2.45;;;;;;;21.86;59.67;100940.88;5064557;28;20111;-20
2022/09/12 10:50:30;;;;;;;2.63;2.42;;;;;;;21.82;59.62;100934.81;5072876;28;20108;-22
2022/09/12 10:53:24;;;;;;;2.30;2.20;;;;;;;21.83;59.18;100941.91;5072598;28;20078;-21
2022/09/12 10:56:12;;;;;;;2.55;2.35;;;;;;;21.81;59.04;100930.41;5073111;28;20143;-21
2022/09/12 10:59:02;;;;;;;2.88;2.67;;;;;;;21.81;58.65;100938.47;5074484;28;20070;-20
2022/09/12 11:01:36;;;;;;;2.42;2.33;;;;;;;21.79;58.85;100929.59;5074296;28;20047;-21
2022/09/12 11:04:20;;;;;;;2.30;2.20;;;;;;;21.77;58.67;100934.16;5053678;28;20028;-21
2022/09/12 11:07:05;;;;;;;2.80;2.60;;;;;;;21.73;58.29;100930.75;5055224;28;20404;-21
2022/09/12 11:09:52;;;;;;;2.40;2.30;;;;;;;21.73;58.39;100929.88;5068747;28;20108;-21
2022/09/12 11:12:36;;;;;;;2.70;2.50;;;;;;;21.73;58.64;100917.34;5070016;28;20468;-21
2022/09/12 11:15:33;;;;;;;2.78;2.60;;;;;;;21.72;58.79;100928.16;5069469;28;20100;-21
2022/09/12 11:18:39;;;;;;;2.92;2.75;;;;;;;21.71;58.75;100921.06;5051536;28;20031;-21
2022/09/12 11:21:13;;;;;;;3.30;3.05;;;;;;;21.72;58.81;100917.41;5069573;28;20029;-21
2022/09/12 11:24:14;;;;;;;2.58;2.38;;;;;;;21.70;58.58;100911.28;5069861;28;20546;-21
2022/09/12 11:27:02;;;;;;;3.17;2.97;;;;;;;21.70;58.84;100912.13;5045054;28;20029;-21
2022/09/12 11:29:54;;;;;;;2.67;2.47;;;;;;;21.73;58.81;100911.09;5071182;28;20024;-21
2022/09/12 11:32:58;;;;;;;3.00;2.80;;;;;;;21.84;59.17;100900.69;5054807;28;20037;-20
2022/09/12 11:35:29;;;;;;;2.30;2.15;;;;;;;21.91;59.13;100899.41;5053311;28;20107;-21
2022/09/12 11:38:00;;;;;;;2.78;2.58;;;;;;;22.04;59.83;100896.94;5039549;28;20029;-20
2022/09/12 11:40:43;;;;;;;4.18;2.20;;;;;;;22.18;58.85;100901.53;5051471;28;20036;-24
2022/09/12 11:43:53;;;;;;;2.90;2.70;;;;;;;22.25;58.57;100895.84;5046585;28;20123;-21
2022/09/12 11:46:22;;;;;;;2.53;2.33;;;;;;;22.29;58.43;100890.22;5058459;28;20385;-21
2022/09/12 11:49:16;;;;;;;2.47;2.38;;;;;;;22.34;57.25;100892.66;5071583;28;20020;-21
2022/09/12 11:52:14;;;;;;;2.72;2.53;;;;;;;22.45;58.05;100891.19;5053562;28;20477;-21
2022/09/12 11:54:49;;;;;;;2.83;2.63;;;;;;;22.48;56.81;100894.59;5067335;28;20431;-20
2022/09/12 11:57:23;;;;;;;2.35;2.25;;;;;;;22.57;56.73;100893.22;5068660;28;20028;-22
2022/09/12 11:59:52;;;;;;;1.90;1.80;;;;;;;22.70;56.79;100881.78;5070954;28;20048;-20
2022/09/12 12:02:35;;;;;;;2.45;2.25;;;;;;;22.83;57.06;100887.31;5054022;28;20412;-20
2022/09/12 12:05:22;;;;;;;2.70;2.50;;;;;;;22.92;56.54;100887.66;5036439;28;20021;-21
2022/09/12 12:07:59;;;;;;;2.13;2.03;;;;;;;22.98;55.93;100890.94;5069011;28;20020;-21